createdAt,value
2022-08-25T00:01:31.333Z,100.00
2022-08-25T00:04:04.075Z,100.00
2022-08-25T00:06:34.796Z,100.00
2022-08-25T00:09:04.891Z,100.00
2022-08-25T00:11:39.210Z,100.00
2022-08-25T00:14:16.507Z,100.00
2022-08-25T00:16:49.299Z,100.00
2022-08-25T00:19:23.847Z,100.00
2022-08-25T00:21:54.465Z,100.00
2022-08-25T00:24:26.818Z,100.00
2022-08-25T00:26:59.642Z,100.00
2022-08-25T00:29:30.965Z,100.00
2022-08-25T00:32:04.038Z,100.00
2022-08-25T00:34:41.303Z,100.00
2022-08-25T00:37:12.122Z,100.00
2022-08-25T00:39:43.642Z,100.00
2022-08-25T00:42:16.347Z,100.00
2022-08-25T00:44:47.038Z,100.00
2022-08-25T00:47:20.040Z,100.00
2022-08-25T00:49:56.980Z,100.00
2022-08-25T00:52:32.558Z,100.00
2022-08-25T00:55:08.421Z,100.00
2022-08-25T00:57:45.569Z,100.00
2022-08-25T01:00:22.108Z,100.00
2022-08-25T01:02:56.889Z,100.00
2022-08-25T01:05:28.573Z,100.00
2022-08-25T01:08:03.149Z,100.00
2022-08-25T01:10:39.175Z,100.00
2022-08-25T01:13:16.429Z,100.00
2022-08-25T01:15:48.074Z,100.00
2022-08-25T01:18:20.688Z,100.00
2022-08-25T01:20:56.455Z,100.00
2022-08-25T01:23:29.177Z,100.00
2022-08-25T01:26:07.806Z,100.00
2022-08-25T01:28:59.173Z,100.00
2022-08-25T01:31:31.011Z,100.00
2022-08-25T01:34:02.008Z,100.00
2022-08-25T01:36:36.739Z,100.00
2022-08-25T01:39:08.448Z,100.00
2022-08-25T01:41:51.931Z,100.00
2022-08-25T01:44:22.142Z,100.00
2022-08-25T01:46:52.194Z,100.00
2022-08-25T01:49:22.284Z,100.00
2022-08-25T01:52:03.272Z,100.00
2022-08-25T01:54:33.257Z,100.00
2022-08-25T01:57:03.269Z,100.00
2022-08-25T01:59:33.365Z,100.00
2022-08-25T02:02:04.841Z,100.00
2022-08-25T02:04:36.083Z,100.00
2022-08-25T02:07:12.216Z,100.00
2022-08-25T02:09:44.331Z,100.00
2022-08-25T02:12:14.489Z,100.00
2022-08-25T02:14:44.737Z,100.00
2022-08-25T02:17:14.917Z,100.00
2022-08-25T02:19:44.957Z,100.00
2022-08-25T02:22:17.593Z,100.00
2022-08-25T02:24:48.139Z,100.00
2022-08-25T02:27:18.586Z,100.00
2022-08-25T02:29:48.645Z,100.00
2022-08-25T02:32:18.630Z,100.00
2022-08-25T02:34:48.767Z,100.00
2022-08-25T02:37:21.462Z,100.00
2022-08-25T02:39:51.677Z,100.00
2022-08-25T02:42:22.017Z,100.00
2022-08-25T02:44:52.170Z,100.00
2022-08-25T02:47:25.693Z,100.00
2022-08-25T02:49:57.491Z,100.00
2022-08-25T02:52:30.293Z,100.00
2022-08-25T02:55:00.633Z,100.00
2022-08-25T02:57:30.755Z,100.00
2022-08-25T03:00:01.008Z,100.00
2022-08-25T03:02:31.030Z,100.00
2022-08-25T03:05:01.333Z,100.00
2022-08-25T03:07:35.352Z,100.00
2022-08-25T03:10:11.661Z,100.00
2022-08-25T03:12:42.717Z,100.00
2022-08-25T03:15:16.790Z,100.00
2022-08-25T03:17:49.412Z,100.00
2022-08-25T03:20:22.123Z,100.00
2022-08-25T03:22:55.161Z,100.00
2022-08-25T03:25:38.063Z,100.00
2022-08-25T03:28:11.089Z,100.00
2022-08-25T03:30:41.308Z,100.00
2022-08-25T03:33:11.465Z,100.00
2022-08-25T03:35:43.619Z,100.00
2022-08-25T03:38:17.177Z,100.00
2022-08-25T03:40:47.340Z,100.00
2022-08-25T03:43:17.530Z,100.00
2022-08-25T03:45:48.955Z,100.00
2022-08-25T03:48:20.222Z,100.00
2022-08-25T03:50:54.801Z,100.00
2022-08-25T03:53:27.473Z,100.00
2022-08-25T03:55:57.773Z,100.00
2022-08-25T03:58:27.869Z,100.00
2022-08-25T04:01:00.547Z,100.00
2022-08-25T04:03:30.741Z,100.00
2022-08-25T04:06:05.579Z,100.00
2022-08-25T04:08:38.717Z,100.00
2022-08-25T04:11:11.865Z,100.00
2022-08-25T04:13:41.971Z,100.00
2022-08-25T04:16:15.740Z,100.00
2022-08-25T04:18:47.701Z,100.00
2022-08-25T04:21:20.262Z,100.00
2022-08-25T04:23:54.678Z,100.00
2022-08-25T04:26:28.708Z,100.00
2022-08-25T04:29:00.982Z,100.00
2022-08-25T04:31:32.463Z,100.00
2022-08-25T04:34:14.358Z,100.00
2022-08-25T04:36:55.590Z,100.00
2022-08-25T04:39:28.248Z,100.00
2022-08-25T04:42:00.467Z,100.00
2022-08-25T04:44:31.910Z,100.00
2022-08-25T04:47:03.403Z,100.00
2022-08-25T04:49:33.494Z,100.00
2022-08-25T04:52:03.571Z,100.00
2022-08-25T04:54:37.115Z,100.00
2022-08-25T04:57:08.118Z,100.00
2022-08-25T04:59:38.153Z,100.00
2022-08-25T05:02:09.200Z,100.00
2022-08-25T05:04:39.952Z,100.00
2022-08-25T05:07:10.171Z,100.00
2022-08-25T05:09:42.896Z,100.00
2022-08-25T05:12:13.814Z,100.00
2022-08-25T05:14:43.785Z,100.00
2022-08-25T05:17:14.175Z,100.00
2022-08-25T05:19:44.414Z,100.00
2022-08-25T05:22:14.432Z,100.00
2022-08-25T05:24:47.272Z,100.00
2022-08-25T05:27:17.269Z,100.00
2022-08-25T05:29:47.248Z,100.00
2022-08-25T05:32:17.297Z,100.00
2022-08-25T05:34:48.279Z,100.00
2022-08-25T05:37:18.259Z,100.00
2022-08-25T05:39:51.207Z,100.00
2022-08-25T05:42:22.534Z,100.00
2022-08-25T05:44:53.020Z,100.00
2022-08-25T05:47:23.170Z,100.00
2022-08-25T05:49:53.167Z,100.00
2022-08-25T05:52:23.160Z,100.00
2022-08-25T05:54:56.059Z,99.37
2022-08-25T05:57:26.063Z,91.09
2022-08-25T05:59:56.060Z,84.15
2022-08-25T06:02:38.501Z,79.03
2022-08-25T06:05:09.272Z,75.60
2022-08-25T06:07:39.722Z,70.12
2022-08-25T06:10:14.296Z,67.16
2022-08-25T06:12:47.575Z,63.77
2022-08-25T06:15:21.838Z,61.19
2022-08-25T06:17:56.670Z,57.86
2022-08-25T06:20:32.612Z,54.98
2022-08-25T06:23:03.126Z,54.85
2022-08-25T06:25:35.686Z,53.57
2022-08-25T06:28:06.403Z,52.15
2022-08-25T06:30:36.522Z,51.21
2022-08-25T06:33:07.156Z,50.55
2022-08-25T06:35:37.311Z,51.24
2022-08-25T06:38:07.489Z,50.87
2022-08-25T06:40:40.873Z,51.16
2022-08-25T06:43:10.900Z,50.81
2022-08-25T06:45:40.912Z,50.33
2022-08-25T06:48:10.893Z,50.59
2022-08-25T06:50:42.197Z,49.51
2022-08-25T06:53:12.657Z,50.11
2022-08-25T06:55:45.301Z,49.35
2022-08-25T06:58:15.517Z,47.75
2022-08-25T07:00:45.666Z,46.34
2022-08-25T07:03:17.182Z,46.07
2022-08-25T07:05:55.258Z,46.86
2022-08-25T07:08:26.699Z,47.64
2022-08-25T07:10:59.674Z,47.17
2022-08-25T07:13:31.807Z,47.88
2022-08-25T07:16:02.570Z,46.17
2022-08-25T07:18:33.062Z,47.34
2022-08-25T07:21:03.086Z,46.87
2022-08-25T07:23:34.026Z,46.78
2022-08-25T07:29:11.944Z,47.07
2022-08-25T07:31:42.761Z,46.72
2022-08-25T07:34:34.621Z,46.51
2022-08-25T07:37:06.377Z,45.75
2022-08-25T07:39:37.391Z,44.96
2022-08-25T07:42:11.980Z,45.35
2022-08-25T07:44:43.419Z,45.49
2022-08-25T07:47:15.721Z,45.34
2022-08-25T07:49:45.910Z,44.63
2022-08-25T07:52:16.238Z,43.30
2022-08-25T07:54:46.214Z,44.23
2022-08-25T07:57:19.908Z,43.74
2022-08-25T07:59:50.103Z,42.44
2022-08-25T08:02:21.871Z,41.53
2022-08-25T08:04:56.693Z,41.10
2022-08-25T08:07:43.225Z,39.79
2022-08-25T08:10:54.102Z,39.19
2022-08-25T08:13:16.483Z,38.89
2022-08-25T08:15:49.501Z,40.63
2022-08-25T08:18:20.088Z,41.50
2022-08-25T08:20:51.971Z,41.80
2022-08-25T08:23:27.708Z,42.23
2022-08-25T08:25:57.860Z,40.18
2022-08-25T08:28:31.285Z,39.34
2022-08-25T08:31:01.973Z,38.64
2022-08-25T08:33:32.180Z,39.87
2022-08-25T08:36:14.011Z,40.49
2022-08-25T08:38:46.288Z,40.24
2022-08-25T08:42:17.428Z,41.20
2022-08-25T08:45:18.418Z,41.00
2022-08-25T08:48:04.434Z,40.35
2022-08-25T08:50:50.266Z,43.55
2022-08-25T08:53:34.173Z,42.90
2022-08-25T08:56:12.480Z,43.35
2022-08-25T08:58:49.820Z,44.80
2022-08-25T09:01:33.672Z,42.77
2022-08-25T09:04:16.609Z,41.04
2022-08-25T09:06:53.197Z,41.24
2022-08-25T09:09:31.087Z,39.81
2022-08-25T09:12:18.216Z,39.55
2022-08-25T09:15:13.053Z,39.93
2022-08-25T09:18:11.990Z,39.49
2022-08-25T09:21:01.488Z,38.66
2022-08-25T09:23:46.065Z,38.92
2022-08-25T09:26:32.656Z,37.13
2022-08-25T09:29:16.301Z,37.45
2022-08-25T09:31:48.540Z,37.58
2022-08-25T09:34:26.122Z,37.62
2022-08-25T09:36:56.147Z,37.43
2022-08-25T09:39:27.302Z,35.43
2022-08-25T09:42:02.634Z,35.53
2022-08-25T09:44:36.434Z,36.95
2022-08-25T09:47:10.399Z,36.52
2022-08-25T09:49:47.443Z,37.36
2022-08-25T09:52:35.043Z,38.19
2022-08-25T09:55:34.389Z,37.51
2022-08-25T09:58:22.369Z,36.46
2022-08-25T10:01:07.325Z,36.51
2022-08-25T10:03:37.504Z,36.04
2022-08-25T10:06:18.422Z,34.80
2022-08-25T10:09:01.130Z,33.24
2022-08-25T10:11:52.702Z,33.01
2022-08-25T10:14:38.914Z,32.65
2022-08-25T10:17:24.834Z,32.81
2022-08-25T10:20:17.235Z,33.70
2022-08-25T10:22:53.935Z,32.10
2022-08-25T10:25:32.520Z,31.70
2022-08-25T10:28:17.254Z,32.63
2022-08-25T10:31:05.842Z,32.10
2022-08-25T10:33:55.454Z,31.63
2022-08-25T10:36:39.295Z,31.60
2022-08-25T10:39:34.412Z,32.58
2022-08-25T10:42:25.789Z,34.24
2022-08-25T10:45:31.849Z,33.93
2022-08-25T10:48:27.486Z,32.78
2022-08-25T10:51:06.110Z,32.82
2022-08-25T10:53:53.159Z,32.33
2022-08-25T10:56:37.091Z,31.38
2022-08-25T10:59:46.708Z,30.43
2022-08-25T11:03:02.822Z,30.92
2022-08-25T11:05:41.733Z,34.38
2022-08-25T11:08:20.093Z,36.42
2022-08-25T11:10:56.868Z,35.75
2022-08-25T11:13:45.608Z,35.35
2022-08-25T11:16:23.054Z,35.60
2022-08-25T11:19:06.625Z,34.56
2022-08-25T11:21:52.131Z,32.94
2022-08-25T11:24:43.552Z,32.71
2022-08-25T11:27:21.657Z,32.89
2022-08-25T11:30:08.985Z,32.46
2022-08-25T11:32:41.891Z,32.35
2022-08-25T11:35:16.993Z,31.62
2022-08-25T11:38:16.975Z,32.13
2022-08-25T11:41:02.104Z,32.16
2022-08-25T11:44:02.204Z,29.79
2022-08-25T11:46:52.888Z,28.73
2022-08-25T11:49:53.350Z,29.17
2022-08-25T11:52:46.924Z,29.88
2022-08-25T11:55:23.007Z,30.88
2022-08-25T11:58:15.484Z,30.43
2022-08-25T12:00:47.489Z,30.82
2022-08-25T12:03:56.009Z,30.74
2022-08-25T12:06:33.504Z,29.64
2022-08-25T12:09:21.563Z,30.28
2022-08-25T12:11:58.104Z,28.92
2022-08-25T12:14:49.414Z,28.45
2022-08-25T12:17:29.661Z,28.63
2022-08-25T12:20:03.144Z,29.86
2022-08-25T12:23:01.406Z,28.51
2022-08-25T12:25:45.201Z,28.15
2022-08-25T12:28:45.811Z,31.66
2022-08-25T12:31:35.832Z,33.45
2022-08-25T12:34:29.204Z,34.04
2022-08-25T12:37:08.357Z,34.80
2022-08-25T12:39:45.828Z,35.78
2022-08-25T12:42:31.429Z,36.59
2022-08-25T12:45:45.768Z,36.67
2022-08-25T12:48:57.824Z,38.01
2022-08-25T12:51:30.937Z,39.29
2022-08-25T12:54:22.512Z,38.55
2022-08-25T12:57:01.788Z,37.83
2022-08-25T12:59:40.603Z,37.51
2022-08-25T13:02:51.747Z,37.00
2022-08-25T13:06:10.806Z,33.40
2022-08-25T13:09:23.144Z,31.70
2022-08-25T13:12:10.145Z,31.61
2022-08-25T13:14:44.348Z,33.12
2022-08-25T13:17:27.548Z,32.76
2022-08-25T13:20:16.465Z,32.67
2022-08-25T13:22:53.971Z,33.48
2022-08-25T13:25:33.465Z,34.85
2022-08-25T13:28:11.137Z,32.29
2022-08-25T13:30:41.478Z,29.71
2022-08-25T13:33:23.812Z,28.54
2022-08-25T13:36:12.512Z,28.58
2022-08-25T13:38:42.790Z,28.50
2022-08-25T13:41:28.928Z,27.99
2022-08-25T13:44:03.198Z,30.67
2022-08-25T13:46:35.500Z,28.66
2022-08-25T13:49:09.516Z,28.68
2022-08-25T13:51:42.130Z,29.40
2022-08-25T13:54:31.352Z,28.67
2022-08-25T13:57:14.527Z,28.75
2022-08-25T13:59:55.904Z,26.86
2022-08-25T14:02:49.856Z,26.49
2022-08-25T14:05:36.468Z,24.28
2022-08-25T14:08:23.582Z,24.74
2022-08-25T14:11:12.648Z,23.60
2022-08-25T14:13:46.954Z,23.36
2022-08-25T14:16:26.303Z,24.10
2022-08-25T14:19:01.980Z,24.47
2022-08-25T14:21:36.909Z,24.89
2022-08-25T14:24:12.149Z,24.98
2022-08-25T14:26:54.052Z,25.45
2022-08-25T14:29:25.333Z,28.08
2022-08-25T14:31:59.546Z,30.79
2022-08-25T14:34:36.663Z,32.71
2022-08-25T14:37:15.626Z,34.51
2022-08-25T14:39:47.024Z,35.34
2022-08-25T14:42:17.922Z,35.79
2022-08-25T14:44:47.936Z,34.09
2022-08-25T14:47:22.023Z,34.49
2022-08-25T14:49:54.214Z,35.52
2022-08-25T14:52:32.110Z,36.48
2022-08-25T14:55:02.648Z,37.84
2022-08-25T14:57:32.806Z,38.13
2022-08-25T15:00:02.924Z,38.37
2022-08-25T15:02:41.432Z,37.40
2022-08-25T15:05:15.080Z,32.51
2022-08-25T15:07:57.614Z,29.21
2022-08-25T15:10:28.858Z,26.90
2022-08-25T15:13:00.174Z,26.85
2022-08-25T15:15:30.836Z,25.94
2022-08-25T15:18:03.909Z,25.32
2022-08-25T15:20:35.091Z,25.31
2022-08-25T15:23:08.796Z,24.58
2022-08-25T15:25:40.045Z,24.86
2022-08-25T15:28:10.674Z,24.43
2022-08-25T15:30:44.883Z,24.09
2022-08-25T15:33:18.780Z,25.29
2022-08-25T15:35:49.963Z,25.17
2022-08-25T15:38:20.712Z,25.31
2022-08-25T15:40:50.797Z,26.20
2022-08-25T15:43:21.998Z,25.28
2022-08-25T15:45:53.188Z,24.27
2022-08-25T15:48:25.943Z,24.16
2022-08-25T15:51:00.928Z,24.62
2022-08-25T15:53:32.390Z,24.50
2022-08-25T15:56:05.688Z,23.88
2022-08-25T15:58:37.738Z,24.11
2022-08-25T16:01:25.586Z,25.10
2022-08-25T16:03:58.474Z,23.99
2022-08-25T16:06:29.480Z,24.49
2022-08-25T16:08:59.541Z,24.46
2022-08-25T16:11:34.843Z,25.41
2022-08-25T16:14:05.517Z,26.69
2022-08-25T16:16:37.020Z,25.95
2022-08-25T16:19:09.630Z,26.41
2022-08-25T16:21:47.126Z,25.91
2022-08-25T16:24:19.036Z,26.50
2022-08-25T16:26:50.361Z,27.67
2022-08-25T16:29:22.894Z,30.56
2022-08-25T16:31:53.370Z,31.44
2022-08-25T16:34:30.772Z,31.07
2022-08-25T16:37:01.884Z,29.40
2022-08-25T16:39:31.957Z,27.63
2022-08-25T16:42:02.274Z,27.42
2022-08-25T16:44:32.358Z,28.44
2022-08-25T16:47:02.341Z,28.51
2022-08-25T16:49:34.936Z,28.40
2022-08-25T16:52:28.302Z,28.73
2022-08-25T16:55:11.474Z,27.95
2022-08-25T16:57:45.426Z,27.86
2022-08-25T17:00:22.006Z,28.12
2022-08-25T17:02:54.329Z,27.19
2022-08-25T17:05:27.308Z,28.33
2022-08-25T17:08:11.043Z,29.07
2022-08-25T17:10:44.883Z,28.69
2022-08-25T17:13:16.237Z,28.63
2022-08-25T17:15:52.306Z,28.99
2022-08-25T17:18:22.694Z,32.11
2022-08-25T17:21:02.453Z,35.15
2022-08-25T17:23:35.070Z,37.27
2022-08-25T17:26:13.018Z,38.50
2022-08-25T17:28:46.414Z,39.93
2022-08-25T17:31:18.442Z,39.65
2022-08-25T17:33:49.841Z,37.16
2022-08-25T17:36:27.137Z,36.25
2022-08-25T17:38:57.961Z,36.98
2022-08-25T17:41:28.169Z,38.82
2022-08-25T17:43:58.760Z,40.49
2022-08-25T17:46:28.890Z,41.75
2022-08-25T17:48:58.955Z,42.85
2022-08-25T17:51:31.893Z,44.05
2022-08-25T17:54:02.229Z,44.90
2022-08-25T17:56:33.501Z,45.74
2022-08-25T17:59:03.516Z,46.76
2022-08-25T18:01:40.643Z,48.63
2022-08-25T18:04:17.649Z,50.40
2022-08-25T18:06:51.813Z,50.90
2022-08-25T18:09:21.866Z,52.42
2022-08-25T18:11:52.489Z,56.35
2022-08-25T18:14:25.567Z,58.55
2022-08-25T18:16:57.019Z,60.69
2022-08-25T18:19:27.062Z,60.33
2022-08-25T18:22:04.288Z,59.61
2022-08-25T18:24:35.501Z,62.01
2022-08-25T18:27:05.674Z,62.43
2022-08-25T18:29:36.548Z,64.20
2022-08-25T18:32:07.781Z,65.56
2022-08-25T18:34:39.081Z,67.93
2022-08-25T18:37:25.527Z,68.61
2022-08-25T18:40:08.092Z,69.51
2022-08-25T18:42:38.711Z,70.14
2022-08-25T18:45:12.302Z,70.54
2022-08-25T18:47:42.685Z,72.11
2022-08-25T18:50:12.929Z,71.97
2022-08-25T18:52:45.956Z,72.96
2022-08-25T18:55:16.454Z,73.89
2022-08-25T18:57:46.784Z,74.91
2022-08-25T19:00:20.876Z,75.82
2022-08-25T19:02:55.187Z,77.08
2022-08-25T19:05:32.660Z,77.61
2022-08-25T19:08:09.805Z,78.22
2022-08-25T19:10:41.647Z,79.45
2022-08-25T19:13:12.334Z,80.55
2022-08-25T19:15:44.556Z,81.14
2022-08-25T19:18:16.101Z,83.44
2022-08-25T19:20:47.732Z,84.43
2022-08-25T19:23:20.503Z,85.79
2022-08-25T19:25:50.803Z,86.88
2022-08-25T19:28:21.585Z,87.49
2022-08-25T19:30:51.669Z,89.39
2022-08-25T19:33:42.081Z,89.27
2022-08-25T19:36:12.818Z,91.13
2022-08-25T19:38:46.447Z,91.72
2022-08-25T19:41:16.813Z,92.10
2022-08-25T19:43:56.684Z,92.94
2022-08-25T19:46:32.897Z,94.37
2022-08-25T19:49:07.742Z,95.60
2022-08-25T19:51:40.265Z,98.08
2022-08-25T19:54:15.617Z,100.00
2022-08-25T19:56:54.855Z,99.69
2022-08-25T19:59:34.312Z,99.90
2022-08-25T20:02:15.920Z,100.00
2022-08-25T20:04:49.730Z,99.79
2022-08-25T20:07:22.920Z,100.00
2022-08-25T20:09:58.957Z,100.00
2022-08-25T20:12:30.818Z,100.00
2022-08-25T20:15:00.990Z,100.00
2022-08-25T20:17:31.295Z,100.00
2022-08-25T20:20:07.098Z,100.00
2022-08-25T20:22:40.017Z,100.00
2022-08-25T20:25:15.274Z,100.00
2022-08-25T20:27:51.131Z,100.00
2022-08-25T20:30:24.802Z,100.00
2022-08-25T20:32:56.947Z,100.00
2022-08-25T20:35:29.231Z,100.00
2022-08-25T20:38:01.075Z,100.00
2022-08-25T20:40:34.104Z,100.00
2022-08-25T20:43:04.793Z,100.00
2022-08-25T20:45:40.630Z,100.00
2022-08-25T20:48:10.708Z,100.00
2022-08-25T20:50:42.061Z,100.00
2022-08-25T20:53:13.645Z,100.00
2022-08-25T20:55:47.415Z,100.00
2022-08-25T20:58:17.458Z,100.00
2022-08-25T21:00:49.011Z,100.00
2022-08-25T21:03:19.098Z,100.00
2022-08-25T21:05:53.929Z,100.00
2022-08-25T21:08:25.536Z,100.00
2022-08-25T21:10:58.165Z,100.00
2022-08-25T21:13:28.384Z,100.00
2022-08-25T21:16:05.609Z,100.00
2022-08-25T21:18:36.157Z,100.00
2022-08-25T21:21:12.367Z,100.00
2022-08-25T21:23:44.030Z,100.00
2022-08-25T21:26:21.109Z,100.00
2022-08-25T21:28:51.369Z,100.00
2022-08-25T21:31:23.677Z,100.00
2022-08-25T21:33:56.140Z,100.00
2022-08-25T21:36:29.064Z,100.00
2022-08-25T21:39:01.846Z,100.00
2022-08-25T21:41:37.742Z,100.00
2022-08-25T21:44:08.075Z,100.00
2022-08-25T21:46:39.243Z,100.00
2022-08-25T21:49:11.455Z,100.00
2022-08-25T21:51:47.442Z,100.00
2022-08-25T21:54:20.759Z,100.00
2022-08-25T21:56:59.850Z,100.00
2022-08-25T21:59:34.851Z,100.00
2022-08-25T22:02:08.932Z,100.00
2022-08-25T22:04:40.049Z,100.00
2022-08-25T22:07:11.296Z,100.00
2022-08-25T22:09:42.023Z,100.00
2022-08-25T22:12:15.535Z,100.00
2022-08-25T22:14:45.666Z,100.00
2022-08-25T22:17:16.822Z,100.00
2022-08-25T22:19:48.202Z,100.00
2022-08-25T22:22:25.159Z,100.00
2022-08-25T22:24:55.987Z,100.00
2022-08-25T22:27:29.274Z,100.00
2022-08-25T22:29:59.497Z,100.00
2022-08-25T22:32:30.465Z,100.00
2022-08-25T22:35:00.429Z,100.00
2022-08-25T22:37:30.615Z,100.00
2022-08-25T22:40:00.742Z,100.00
2022-08-25T22:42:34.273Z,100.00
2022-08-25T22:45:04.286Z,100.00
2022-08-25T22:47:34.464Z,100.00
2022-08-25T22:50:05.110Z,100.00
2022-08-25T22:52:36.251Z,100.00
2022-08-25T22:55:08.343Z,100.00
2022-08-25T22:57:44.880Z,100.00
2022-08-25T23:00:18.159Z,100.00
2022-08-25T23:02:53.214Z,100.00
2022-08-25T23:05:23.980Z,100.00
2022-08-25T23:07:54.025Z,100.00
2022-08-25T23:10:25.645Z,100.00
2022-08-25T23:12:58.299Z,100.00
2022-08-25T23:15:29.092Z,100.00
2022-08-25T23:17:59.330Z,100.00
2022-08-25T23:20:44.971Z,100.00
2022-08-25T23:23:16.514Z,100.00
2022-08-25T23:25:46.574Z,100.00
2022-08-25T23:28:19.479Z,100.00
2022-08-25T23:30:57.295Z,100.00
2022-08-25T23:33:30.096Z,100.00
2022-08-25T23:36:02.606Z,100.00
2022-08-25T23:38:32.944Z,100.00
2022-08-25T23:41:03.522Z,100.00
2022-08-25T23:43:36.856Z,100.00
2022-08-25T23:46:08.509Z,100.00
2022-08-25T23:48:39.560Z,100.00
2022-08-25T23:51:10.182Z,100.00
2022-08-25T23:53:40.523Z,100.00
2022-08-25T23:56:10.518Z,100.00
2022-08-25T23:58:43.443Z,100.00
